sensor_id;sensor_type;location;lat;lon;timestamp;pressure;altitude;pressure_sealevel;temperature;humidity
43436;BME280;36399;51.444;-2.018;2023-02-20T00:00:55;101844.09;;;6.71;100.00
43436;BME280;36399;51.444;-2.018;2023-02-20T00:03:21;101846.22;;;6.78;100.00
43436;BME280;36399;51.444;-2.018;2023-02-20T00:05:47;101838.28;;;6.76;100.00
43436;BME280;36399;51.444;-2.018;2023-02-20T00:08:13;101838.13;;;6.73;100.00
43436;BME280;36399;51.444;-2.018;2023-02-20T00:10:39;101844.00;;;6.69;100.00
43436;BME280;36399;51.444;-2.018;2023-02-20T00:13:06;101848.25;;;6.67;100.00
43436;BME280;36399;51.444;-2.018;2023-02-20T00:15:32;101849.22;;;6.69;100.00
43436;BME280;36399;51.444;-2.018;2023-02-20T00:17:57;101844.69;;;6.65;100.00
43436;BME280;36399;51.444;-2.018;2023-02-20T00:20:24;101837.97;;;6.70;100.00
43436;BME280;36399;51.444;-2.018;2023-02-20T00:22:51;101841.09;;;6.63;100.00
43436;BME280;36399;51.444;-2.018;2023-02-20T00:25:19;101838.50;;;6.63;100.00
43436;BME280;36399;51.444;-2.018;2023-02-20T00:27:45;101834.25;;;6.65;100.00
43436;BME280;36399;51.444;-2.018;2023-02-20T00:30:15;101831.63;;;6.65;100.00
43436;BME280;36399;51.444;-2.018;2023-02-20T00:32:41;101830.22;;;6.72;100.00
43436;BME280;36399;51.444;-2.018;2023-02-20T00:35:09;101832.84;;;6.72;100.00
43436;BME280;36399;51.444;-2.018;2023-02-20T00:37:37;101825.06;;;6.73;100.00
43436;BME280;36399;51.444;-2.018;2023-02-20T00:40:04;101836.50;;;6.75;100.00
43436;BME280;36399;51.444;-2.018;2023-02-20T00:42:31;101820.00;;;6.76;100.00
43436;BME280;36399;51.444;-2.018;2023-02-20T00:44:57;101820.00;;;6.76;100.00
43436;BME280;36399;51.444;-2.018;2023-02-20T00:47:23;101821.66;;;6.74;100.00
43436;BME280;36399;51.444;-2.018;2023-02-20T00:49:49;101821.84;;;6.77;100.00
43436;BME280;36399;51.444;-2.018;2023-02-20T00:52:15;101810.25;;;6.72;100.00
43436;BME280;36399;51.444;-2.018;2023-02-20T00:54:41;101807.72;;;6.74;100.00
43436;BME280;36399;51.444;-2.018;2023-02-20T00:57:07;101805.84;;;6.71;100.00
43436;BME280;36399;51.444;-2.018;2023-02-20T00:59:33;101799.88;;;6.74;100.00
43436;BME280;36399;51.444;-2.018;2023-02-20T01:01:59;101795.19;;;6.67;100.00
43436;BME280;36399;51.444;-2.018;2023-02-20T01:04:25;101800.41;;;6.67;100.00
43436;BME280;36399;51.444;-2.018;2023-02-20T01:06:51;101809.03;;;6.65;100.00
43436;BME280;36399;51.444;-2.018;2023-02-20T01:09:17;101820.22;;;6.63;100.00
43436;BME280;36399;51.444;-2.018;2023-02-20T01:11:44;101808.97;;;6.64;100.00
43436;BME280;36399;51.444;-2.018;2023-02-20T01:14:11;101802.94;;;6.65;100.00
43436;BME280;36399;51.444;-2.018;2023-02-20T01:16:43;101794.13;;;6.63;100.00
43436;BME280;36399;51.444;-2.018;2023-02-20T01:19:10;101787.13;;;6.62;100.00
43436;BME280;36399;51.444;-2.018;2023-02-20T01:21:36;101791.66;;;6.66;100.00
43436;BME280;36399;51.444;-2.018;2023-02-20T01:24:02;101787.41;;;6.68;100.00
43436;BME280;36399;51.444;-2.018;2023-02-20T01:26:29;101796.06;;;6.67;100.00
43436;BME280;36399;51.444;-2.018;2023-02-20T01:28:55;101789.06;;;6.66;100.00
43436;BME280;36399;51.444;-2.018;2023-02-20T01:31:21;101788.53;;;6.73;100.00
43436;BME280;36399;51.444;-2.018;2023-02-20T01:33:47;101791.75;;;6.68;100.00
43436;BME280;36399;51.444;-2.018;2023-02-20T01:36:13;101799.66;;;6.69;100.00
43436;BME280;36399;51.444;-2.018;2023-02-20T01:38:40;101794.44;;;6.69;100.00
43436;BME280;36399;51.444;-2.018;2023-02-20T01:41:10;101790.78;;;6.65;100.00
43436;BME280;36399;51.444;-2.018;2023-02-20T01:43:36;101798.38;;;6.61;100.00
43436;BME280;36399;51.444;-2.018;2023-02-20T01:49:14;101800.84;;;6.58;100.00
43436;BME280;36399;51.444;-2.018;2023-02-20T01:51:46;101808.66;;;6.58;100.00
43436;BME280;36399;51.444;-2.018;2023-02-20T01:54:17;101790.25;;;6.55;100.00
43436;BME280;36399;51.444;-2.018;2023-02-20T01:56:46;101807.53;;;6.53;100.00
43436;BME280;36399;51.444;-2.018;2023-02-20T01:59:14;101807.38;;;6.50;100.00
43436;BME280;36399;51.444;-2.018;2023-02-20T02:01:41;101815.13;;;6.48;100.00
43436;BME280;36399;51.444;-2.018;2023-02-20T02:04:09;101811.63;;;6.48;100.00
43436;BME280;36399;51.444;-2.018;2023-02-20T02:06:40;101807.88;;;6.43;100.00
43436;BME280;36399;51.444;-2.018;2023-02-20T02:09:17;101817.97;;;6.53;100.00
43436;BME280;36399;51.444;-2.018;2023-02-20T02:11:47;101816.69;;;6.45;100.00
43436;BME280;36399;51.444;-2.018;2023-02-20T02:14:13;101819.31;;;6.45;100.00
43436;BME280;36399;51.444;-2.018;2023-02-20T02:16:53;101829.56;;;6.42;100.00
43436;BME280;36399;51.444;-2.018;2023-02-20T02:33:53;101827.31;;;6.31;100.00
43436;BME280;36399;51.444;-2.018;2023-02-20T02:39:12;101819.66;;;6.35;100.00
43436;BME280;36399;51.444;-2.018;2023-02-20T02:47:34;101822.34;;;6.36;100.00
43436;BME280;36399;51.444;-2.018;2023-02-20T02:50:11;101827.94;;;6.44;100.00
43436;BME280;36399;51.444;-2.018;2023-02-20T02:52:41;101821.69;;;6.40;100.00
43436;BME280;36399;51.444;-2.018;2023-02-20T02:55:21;101817.34;;;6.41;100.00
43436;BME280;36399;51.444;-2.018;2023-02-20T02:57:48;101811.78;;;6.51;100.00
43436;BME280;36399;51.444;-2.018;2023-02-20T03:05:19;101808.88;;;6.45;100.00
43436;BME280;36399;51.444;-2.018;2023-02-20T03:07:50;101810.66;;;6.46;100.00
43436;BME280;36399;51.444;-2.018;2023-02-20T03:10:21;101813.50;;;6.50;100.00
43436;BME280;36399;51.444;-2.018;2023-02-20T03:13:01;101807.53;;;6.53;100.00
43436;BME280;36399;51.444;-2.018;2023-02-20T03:15:34;101811.78;;;6.51;100.00
43436;BME280;36399;51.444;-2.018;2023-02-20T03:20:49;101812.59;;;6.50;100.00
43436;BME280;36399;51.444;-2.018;2023-02-20T03:23:21;101806.56;;;6.51;100.00
43436;BME280;36399;51.444;-2.018;2023-02-20T03:26:00;101807.53;;;6.53;100.00
43436;BME280;36399;51.444;-2.018;2023-02-20T03:28:32;101809.19;;;6.51;100.00
43436;BME280;36399;51.444;-2.018;2023-02-20T03:31:15;101800.53;;;6.52;100.00
43436;BME280;36399;51.444;-2.018;2023-02-20T03:33:45;101797.75;;;6.49;100.00
43436;BME280;36399;51.444;-2.018;2023-02-20T03:36:47;101791.88;;;6.53;100.00
43436;BME280;36399;51.444;-2.018;2023-02-20T03:39:36;101797.09;;;6.53;100.00
43436;BME280;36399;51.444;-2.018;2023-02-20T03:42:23;101798.88;;;6.54;100.00
43436;BME280;36399;51.444;-2.018;2023-02-20T03:45:09;101795.47;;;6.55;100.00
43436;BME280;36399;51.444;-2.018;2023-02-20T03:47:42;101797.25;;;6.56;100.00
43436;BME280;36399;51.444;-2.018;2023-02-20T03:50:10;101788.59;;;6.57;100.00
43436;BME280;36399;51.444;-2.018;2023-02-20T03:52:37;101792.03;;;6.56;100.00
43436;BME280;36399;51.444;-2.018;2023-02-20T03:55:04;101792.19;;;6.59;100.00
43436;BME280;36399;51.444;-2.018;2023-02-20T03:57:33;101795.16;;;6.49;100.00
43436;BME280;36399;51.444;-2.018;2023-02-20T04:00:10;101786.22;;;6.44;100.00
43436;BME280;36399;51.444;-2.018;2023-02-20T04:02:43;101793.06;;;6.42;100.00
43436;BME280;36399;51.444;-2.018;2023-02-20T04:05:30;101787.91;;;6.43;100.00
43436;BME280;36399;51.444;-2.018;2023-02-20T04:08:04;101784.41;;;6.43;100.00
43436;BME280;36399;51.444;-2.018;2023-02-20T04:10:40;101786.13;;;6.42;100.00
43436;BME280;36399;51.444;-2.018;2023-02-20T04:13:08;101787.69;;;6.39;100.00
43436;BME280;36399;51.444;-2.018;2023-02-20T04:15:36;101781.66;;;6.40;100.00
43436;BME280;36399;51.444;-2.018;2023-02-20T04:18:22;101783.97;;;6.33;100.00
43436;BME280;36399;51.444;-2.018;2023-02-20T04:20:52;101786.47;;;6.32;100.00
43436;BME280;36399;51.444;-2.018;2023-02-20T04:23:20;101788.34;;;6.35;100.00
43436;BME280;36399;51.444;-2.018;2023-02-20T04:25:56;101786.47;;;6.32;100.00
43436;BME280;36399;51.444;-2.018;2023-02-20T04:28:24;101779.25;;;6.26;100.00
43436;BME280;36399;51.444;-2.018;2023-02-20T04:30:51;101781.03;;;6.27;100.00
43436;BME280;36399;51.444;-2.018;2023-02-20T04:33:17;101785.28;;;6.25;100.00
43436;BME280;36399;51.444;-2.018;2023-02-20T04:35:44;101784.63;;;6.29;100.00
43436;BME280;36399;51.444;-2.018;2023-02-20T04:38:11;101785.84;;;6.20;100.00
43436;BME280;36399;51.444;-2.018;2023-02-20T04:40:37;101778.28;;;6.24;100.00
43436;BME280;36399;51.444;-2.018;2023-02-20T04:43:04;101778.28;;;6.24;100.00
43436;BME280;36399;51.444;-2.018;2023-02-20T04:45:31;101781.13;;;6.29;100.00
43436;BME280;36399;51.444;-2.018;2023-02-20T04:47:57;101782.00;;;6.29;100.00
43436;BME280;36399;51.444;-2.018;2023-02-20T04:50:32;101788.78;;;6.26;100.00
43436;BME280;36399;51.444;-2.018;2023-02-20T04:52:59;101786.88;;;6.23;100.00
43436;BME280;36399;51.444;-2.018;2023-02-20T04:55:26;101788.13;;;6.30;100.00
43436;BME280;36399;51.444;-2.018;2023-02-20T04:57:53;101787.88;;;6.25;100.00
43436;BME280;36399;51.444;-2.018;2023-02-20T05:00:21;101787.00;;;6.25;100.00
43436;BME280;36399;51.444;-2.018;2023-02-20T05:02:48;101786.25;;;6.27;100.00
43436;BME280;36399;51.444;-2.018;2023-02-20T05:05:18;101782.41;;;6.21;100.00
43436;BME280;36399;51.444;-2.018;2023-02-20T05:07:44;101791.13;;;6.21;100.00
43436;BME280;36399;51.444;-2.018;2023-02-20T05:10:19;101782.31;;;6.19;100.00
43436;BME280;36399;51.444;-2.018;2023-02-20T05:12:45;101785.69;;;6.17;100.00
43436;BME280;36399;51.444;-2.018;2023-02-20T05:15:12;101802.38;;;6.20;100.00
43436;BME280;36399;51.444;-2.018;2023-02-20T05:17:39;101791.47;;;6.11;100.00
43436;BME280;36399;51.444;-2.018;2023-02-20T05:20:06;101798.47;;;6.12;100.00
43436;BME280;36399;51.444;-2.018;2023-02-20T05:22:32;101807.94;;;6.10;100.00
43436;BME280;36399;51.444;-2.018;2023-02-20T05:24:58;101799.63;;;6.01;100.00
43436;BME280;36399;51.444;-2.018;2023-02-20T05:27:25;101803.22;;;6.03;100.00
43436;BME280;36399;51.444;-2.018;2023-02-20T05:29:54;101811.28;;;6.08;100.00
43436;BME280;36399;51.444;-2.018;2023-02-20T05:32:22;101811.13;;;6.05;100.00
43436;BME280;36399;51.444;-2.018;2023-02-20T05:34:48;101815.75;;;6.10;100.00
43436;BME280;36399;51.444;-2.018;2023-02-20T05:37:16;101811.34;;;6.09;100.00
43436;BME280;36399;51.444;-2.018;2023-02-20T05:39:43;101812.16;;;6.08;100.00
43436;BME280;36399;51.444;-2.018;2023-02-20T05:42:10;101813.63;;;6.03;100.00
43436;BME280;36399;51.444;-2.018;2023-02-20T05:44:36;101805.75;;;6.01;100.00
43436;BME280;36399;51.444;-2.018;2023-02-20T05:47:03;101802.63;;;6.09;100.00
43436;BME280;36399;51.444;-2.018;2023-02-20T05:49:29;101809.31;;;6.04;100.00
43436;BME280;36399;51.444;-2.018;2023-02-20T05:51:56;101810.22;;;6.04;100.00
43436;BME280;36399;51.444;-2.018;2023-02-20T05:54:23;101813.97;;;6.09;100.00
43436;BME280;36399;51.444;-2.018;2023-02-20T05:56:50;101806.28;;;6.12;100.00
43436;BME280;36399;51.444;-2.018;2023-02-20T05:59:19;101805.47;;;6.13;100.00
43436;BME280;36399;51.444;-2.018;2023-02-20T06:01:46;101808.75;;;6.09;100.00
43436;BME280;36399;51.444;-2.018;2023-02-20T06:04:12;101794.72;;;6.07;100.00
43436;BME280;36399;51.444;-2.018;2023-02-20T06:06:40;101800.84;;;6.08;100.00
43436;BME280;36399;51.444;-2.018;2023-02-20T06:09:08;101801.00;;;6.11;100.00
43436;BME280;36399;51.444;-2.018;2023-02-20T06:11:38;101792.13;;;6.07;100.00
43436;BME280;36399;51.444;-2.018;2023-02-20T06:14:05;101799.13;;;6.08;100.00
43436;BME280;36399;51.444;-2.018;2023-02-20T06:16:33;101796.59;;;6.10;100.00
43436;BME280;36399;51.444;-2.018;2023-02-20T06:19:00;101804.19;;;6.05;100.00
43436;BME280;36399;51.444;-2.018;2023-02-20T06:21:26;101794.91;;;6.10;100.00
43436;BME280;36399;51.444;-2.018;2023-02-20T06:23:53;101800.09;;;6.10;100.00
43436;BME280;36399;51.444;-2.018;2023-02-20T06:26:21;101803.38;;;6.06;100.00
43436;BME280;36399;51.444;-2.018;2023-02-20T06:28:47;101802.56;;;6.07;100.00
43436;BME280;36399;51.444;-2.018;2023-02-20T06:31:24;101801.09;;;6.12;100.00
43436;BME280;36399;51.444;-2.018;2023-02-20T06:33:51;101804.34;;;6.08;100.00
43436;BME280;36399;51.444;-2.018;2023-02-20T06:36:23;101801.00;;;6.11;100.00
43436;BME280;36399;51.444;-2.018;2023-02-20T06:38:50;101801.91;;;6.11;100.00
43436;BME280;36399;51.444;-2.018;2023-02-20T06:41:16;101803.53;;;6.09;100.00
43436;BME280;36399;51.444;-2.018;2023-02-20T06:43:42;101807.94;;;6.10;100.00
43436;BME280;36399;51.444;-2.018;2023-02-20T06:46:08;101810.03;;;6.17;100.00
43436;BME280;36399;51.444;-2.018;2023-02-20T06:48:34;101810.69;;;6.13;100.00
43436;BME280;36399;51.444;-2.018;2023-02-20T06:51:00;101801.63;;;6.23;100.00
43436;BME280;36399;51.444;-2.018;2023-02-20T06:53:26;101810.19;;;6.20;100.00
43436;BME280;36399;51.444;-2.018;2023-02-20T06:55:52;101804.00;;;6.18;100.00
43436;BME280;36399;51.444;-2.018;2023-02-20T06:58:18;101801.56;;;6.21;100.00
43436;BME280;36399;51.444;-2.018;2023-02-20T07:00:44;101798.78;;;6.18;100.00
43436;BME280;36399;51.444;-2.018;2023-02-20T07:03:09;101804.16;;;6.21;100.00
43436;BME280;36399;51.444;-2.018;2023-02-20T07:05:35;101797.91;;;6.18;100.00
43436;BME280;36399;51.444;-2.018;2023-02-20T07:08:01;101785.91;;;6.21;100.00
43436;BME280;36399;51.444;-2.018;2023-02-20T07:10:27;101778.44;;;6.27;100.00
43436;BME280;36399;51.444;-2.018;2023-02-20T07:12:53;101781.66;;;6.23;100.00
43436;BME280;36399;51.444;-2.018;2023-02-20T07:15:19;101788.03;;;6.28;100.00
43436;BME280;36399;51.444;-2.018;2023-02-20T07:17:46;101792.44;;;6.29;100.00
43436;BME280;36399;51.444;-2.018;2023-02-20T07:20:16;101788.03;;;6.28;100.00
43436;BME280;36399;51.444;-2.018;2023-02-20T07:22:51;101789.16;;;6.33;100.00
43436;BME280;36399;51.444;-2.018;2023-02-20T07:25:19;101787.53;;;6.36;100.00
43436;BME280;36399;51.444;-2.018;2023-02-20T07:27:45;101785.91;;;6.38;100.00
43436;BME280;36399;51.444;-2.018;2023-02-20T07:30:11;101781.88;;;6.44;100.00
43436;BME280;36399;51.444;-2.018;2023-02-20T07:32:40;101794.69;;;6.40;100.00
43436;BME280;36399;51.444;-2.018;2023-02-20T07:35:06;101787.84;;;6.42;100.00
43436;BME280;36399;51.444;-2.018;2023-02-20T07:37:32;101800.28;;;6.47;100.00
43436;BME280;36399;51.444;-2.018;2023-02-20T07:39:58;101802.00;;;6.47;100.00
43436;BME280;36399;51.444;-2.018;2023-02-20T07:42:26;101800.38;;;6.49;100.00
43436;BME280;36399;51.444;-2.018;2023-02-20T07:44:52;101800.91;;;6.59;100.00
43436;BME280;36399;51.444;-2.018;2023-02-20T07:47:18;101804.25;;;6.57;100.00
43436;BME280;36399;51.444;-2.018;2023-02-20T07:49:44;101808.00;;;6.62;100.00
43436;BME280;36399;51.444;-2.018;2023-02-20T07:52:10;101808.16;;;6.65;100.00
43436;BME280;36399;51.444;-2.018;2023-02-20T07:54:36;101817.09;;;6.70;100.00
43436;BME280;36399;51.444;-2.018;2023-02-20T07:57:03;101805.84;;;6.71;100.00
43436;BME280;36399;51.444;-2.018;2023-02-20T07:59:28;101811.41;;;6.61;100.00
43436;BME280;36399;51.444;-2.018;2023-02-20T08:01:54;101814.78;;;6.58;100.00
43436;BME280;36399;51.444;-2.018;2023-02-20T08:04:20;101808.44;;;6.71;100.00
43436;BME280;36399;51.444;-2.018;2023-02-20T08:06:46;101815.91;;;6.63;100.00
43436;BME280;36399;51.444;-2.018;2023-02-20T08:09:12;101801.13;;;6.64;100.00
43436;BME280;36399;51.444;-2.018;2023-02-20T08:11:38;101809.13;;;6.67;100.00
43436;BME280;36399;51.444;-2.018;2023-02-20T08:14:05;101795.56;;;6.74;100.00
43436;BME280;36399;51.444;-2.018;2023-02-20T08:16:31;101796.53;;;6.76;100.00
43436;BME280;36399;51.444;-2.018;2023-02-20T08:18:58;101798.34;;;6.77;100.00
43436;BME280;36399;51.444;-2.018;2023-02-20T08:21:24;101812.97;;;6.91;100.00
43436;BME280;36399;51.444;-2.018;2023-02-20T08:23:51;101803.19;;;6.87;100.00
43436;BME280;36399;51.444;-2.018;2023-02-20T08:26:17;101808.84;;;6.96;100.00
43436;BME280;36399;51.444;-2.018;2023-02-20T08:28:46;101796.16;;;7.04;100.00
43436;BME280;36399;51.444;-2.018;2023-02-20T08:31:11;101797.88;;;7.04;100.00
43436;BME280;36399;51.444;-2.018;2023-02-20T08:33:37;101787.81;;;7.11;100.00
43436;BME280;36399;51.444;-2.018;2023-02-20T08:36:04;101783.69;;;7.16;100.00
43436;BME280;36399;51.444;-2.018;2023-02-20T08:38:35;101781.59;;;7.27;100.00
43436;BME280;36399;51.444;-2.018;2023-02-20T08:41:06;101792.50;;;7.36;100.00
43436;BME280;36399;51.444;-2.018;2023-02-20T08:43:36;101793.59;;;7.41;100.00
43436;BME280;36399;51.444;-2.018;2023-02-20T08:46:04;101792.38;;;7.52;100.00
43436;BME280;36399;51.444;-2.018;2023-02-20T08:48:30;101798.72;;;7.57;100.00
43436;BME280;36399;51.444;-2.018;2023-02-20T08:50:56;101795.06;;;7.54;100.00
43436;BME280;36399;51.444;-2.018;2023-02-20T08:53:22;101795.41;;;7.62;100.00
43436;BME280;36399;51.444;-2.018;2023-02-20T08:55:48;101800.09;;;7.69;100.00
43436;BME280;36399;51.444;-2.018;2023-02-20T08:58:18;101789.56;;;7.67;100.00
43436;BME280;36399;51.444;-2.018;2023-02-20T09:00:45;101793.16;;;7.69;100.00
43436;BME280;36399;51.444;-2.018;2023-02-20T09:03:11;101791.16;;;7.64;100.00
43436;BME280;36399;51.444;-2.018;2023-02-20T09:05:41;101787.03;;;7.69;100.00
43436;BME280;36399;51.444;-2.018;2023-02-20T09:08:08;101781.19;;;7.74;100.00
43436;BME280;36399;51.444;-2.018;2023-02-20T09:10:34;101780.78;;;7.84;100.00
43436;BME280;36399;51.444;-2.018;2023-02-20T09:13:00;101779.47;;;7.94;100.00
43436;BME280;36399;51.444;-2.018;2023-02-20T09:15:27;101784.31;;;7.85;100.00
43436;BME280;36399;51.444;-2.018;2023-02-20T09:17:53;101791.59;;;7.92;100.00
43436;BME280;36399;51.444;-2.018;2023-02-20T09:20:21;101772.72;;;7.99;100.00
43436;BME280;36399;51.444;-2.018;2023-02-20T09:22:48;101780.03;;;8.06;100.00
43436;BME280;36399;51.444;-2.018;2023-02-20T09:25:16;101778.63;;;8.14;100.00
43436;BME280;36399;51.444;-2.018;2023-02-20T09:27:42;101783.72;;;8.11;100.00
43436;BME280;36399;51.444;-2.018;2023-02-20T09:30:09;101782.19;;;8.16;100.00
43436;BME280;36399;51.444;-2.018;2023-02-20T09:32:36;101769.06;;;8.15;100.00
43436;BME280;36399;51.444;-2.018;2023-02-20T09:35:02;101764.16;;;8.22;100.00
43436;BME280;36399;51.444;-2.018;2023-02-20T09:37:28;101769.59;;;8.27;100.00
43436;BME280;36399;51.444;-2.018;2023-02-20T09:39:54;101759.63;;;8.38;100.00
43436;BME280;36399;51.444;-2.018;2023-02-20T09:45:09;101756.69;;;8.51;100.00
43436;BME280;36399;51.444;-2.018;2023-02-20T09:50:20;101762.28;;;8.81;100.00
43436;BME280;36399;51.444;-2.018;2023-02-20T09:52:55;101754.78;;;8.89;100.00
43436;BME280;36399;51.444;-2.018;2023-02-20T09:55:24;101746.25;;;8.94;100.00
43436;BME280;36399;51.444;-2.018;2023-02-20T09:57:55;101752.41;;;8.95;100.00
43436;BME280;36399;51.444;-2.018;2023-02-20T10:00:31;101748.94;;;8.96;100.00
43436;BME280;36399;51.444;-2.018;2023-02-20T10:05:50;101746.31;;;8.96;100.00
43436;BME280;36399;51.444;-2.018;2023-02-20T10:08:20;101738.72;;;9.02;100.00
43436;BME280;36399;51.444;-2.018;2023-02-20T10:10:50;101742.63;;;9.13;100.00
43436;BME280;36399;51.444;-2.018;2023-02-20T10:13:35;101748.00;;;9.16;100.00
43436;BME280;36399;51.444;-2.018;2023-02-20T10:22:08;101740.97;;;9.37;100.00
43436;BME280;36399;51.444;-2.018;2023-02-20T10:30:14;101718.06;;;9.56;100.00
43436;BME280;36399;51.444;-2.018;2023-02-20T10:33:13;101715.34;;;9.53;100.00
43436;BME280;36399;51.444;-2.018;2023-02-20T10:38:20;101696.69;;;9.69;100.00
43436;BME280;36399;51.444;-2.018;2023-02-20T10:40:53;101696.03;;;9.74;100.00
43436;BME280;36399;51.444;-2.018;2023-02-20T10:43:39;101686.22;;;9.69;100.00
43436;BME280;36399;51.444;-2.018;2023-02-20T10:46:14;101674.16;;;9.74;100.00
43436;BME280;36399;51.444;-2.018;2023-02-20T10:48:44;101681.63;;;9.63;100.00
43436;BME280;36399;51.444;-2.018;2023-02-20T10:51:32;101683.81;;;9.75;100.00
43436;BME280;36399;51.444;-2.018;2023-02-20T11:01:27;101670.16;;;10.09;100.00
43436;BME280;36399;51.444;-2.018;2023-02-20T11:04:00;101664.66;;;10.01;100.00
43436;BME280;36399;51.444;-2.018;2023-02-20T11:06:35;101679.66;;;10.05;100.00
43436;BME280;36399;51.444;-2.018;2023-02-20T11:09:03;101669.25;;;10.08;100.00
43436;BME280;36399;51.444;-2.018;2023-02-20T11:11:32;101678.03;;;10.09;100.00
43436;BME280;36399;51.444;-2.018;2023-02-20T11:14:01;101673.38;;;10.26;100.00
43436;BME280;36399;51.444;-2.018;2023-02-20T11:16:58;101671.25;;;10.16;100.00
43436;BME280;36399;51.444;-2.018;2023-02-20T11:19:30;101662.88;;;10.26;100.00
43436;BME280;36399;51.444;-2.018;2023-02-20T11:21:58;101666.34;;;10.25;100.00
43436;BME280;36399;51.444;-2.018;2023-02-20T11:24:28;101660.59;;;10.11;100.00
43436;BME280;36399;51.444;-2.018;2023-02-20T11:27:07;101659.84;;;10.15;100.00
43436;BME280;36399;51.444;-2.018;2023-02-20T11:29:46;101654.84;;;10.21;100.00
43436;BME280;36399;51.444;-2.018;2023-02-20T11:34:44;101650.75;;;10.56;100.00
43436;BME280;36399;51.444;-2.018;2023-02-20T11:37:11;101644.19;;;10.70;100.00
43436;BME280;36399;51.444;-2.018;2023-02-20T11:39:45;101645.50;;;10.56;100.00
43436;BME280;36399;51.444;-2.018;2023-02-20T11:42:15;101651.50;;;10.52;100.00
43436;BME280;36399;51.444;-2.018;2023-02-20T11:44:42;101652.44;;;10.54;100.00
43436;BME280;36399;51.444;-2.018;2023-02-20T11:47:25;101630.94;;;10.39;100.00
43436;BME280;36399;51.444;-2.018;2023-02-20T11:50:15;101632.38;;;10.56;100.00
43436;BME280;36399;51.444;-2.018;2023-02-20T11:52:57;101624.41;;;10.82;100.00
43436;BME280;36399;51.444;-2.018;2023-02-20T11:55:25;101614.38;;;10.97;100.00
43436;BME280;36399;51.444;-2.018;2023-02-20T11:57:51;101609.22;;;11.00;100.00
43436;BME280;36399;51.444;-2.018;2023-02-20T12:00:22;101613.28;;;11.20;100.00
43436;BME280;36399;51.444;-2.018;2023-02-20T12:03:13;101603.84;;;11.27;100.00
43436;BME280;36399;51.444;-2.018;2023-02-20T12:05:44;101605.66;;;11.29;100.00
43436;BME280;36399;51.444;-2.018;2023-02-20T12:11:09;101602.19;;;11.30;100.00
43436;BME280;36399;51.444;-2.018;2023-02-20T12:13:43;101593.00;;;11.46;100.00
43436;BME280;36399;51.444;-2.018;2023-02-20T12:16:20;101586.00;;;11.47;100.00
43436;BME280;36399;51.444;-2.018;2023-02-20T12:19:20;101576.19;;;11.41;100.00
43436;BME280;36399;51.444;-2.018;2023-02-20T12:22:17;101582.16;;;11.35;100.00
43436;BME280;36399;51.444;-2.018;2023-02-20T12:25:04;101573.53;;;11.08;100.00
43436;BME280;36399;51.444;-2.018;2023-02-20T12:41:11;101539.63;;;12.18;100.00
43436;BME280;36399;51.444;-2.018;2023-02-20T12:46:36;101520.63;;;12.31;100.00
43436;BME280;36399;51.444;-2.018;2023-02-20T12:49:31;101515.31;;;12.69;100.00
43436;BME280;36399;51.444;-2.018;2023-02-20T12:54:45;101510.00;;;13.09;100.00
43436;BME280;36399;51.444;-2.018;2023-02-20T13:00:19;101488.38;;;12.83;100.00
43436;BME280;36399;51.444;-2.018;2023-02-20T13:03:40;101491.75;;;12.76;100.00
43436;BME280;36399;51.444;-2.018;2023-02-20T13:05:42;101499.09;;;12.49;100.00
43436;BME280;36399;51.444;-2.018;2023-02-20T13:08:34;101497.78;;;12.30;100.00
43436;BME280;36399;51.444;-2.018;2023-02-20T13:11:04;101493.34;;;12.29;100.00
43436;BME280;36399;51.444;-2.018;2023-02-20T13:16:18;101498.19;;;12.09;100.00
43436;BME280;36399;51.444;-2.018;2023-02-20T13:18:58;101496.72;;;12.22;100.00
43436;BME280;36399;51.444;-2.018;2023-02-20T13:21:30;101489.19;;;12.39;100.00
43436;BME280;36399;51.444;-2.018;2023-02-20T13:27:05;101491.47;;;12.23;100.00
43436;BME280;36399;51.444;-2.018;2023-02-20T13:29:34;101480.66;;;12.10;100.00
43436;BME280;36399;51.444;-2.018;2023-02-20T13:34:43;101478.28;;;12.22;100.00
43436;BME280;36399;51.444;-2.018;2023-02-20T13:53:52;101454.69;;;11.89;100.00
43436;BME280;36399;51.444;-2.018;2023-02-20T13:56:25;101450.88;;;11.76;100.00
43436;BME280;36399;51.444;-2.018;2023-02-20T13:58:54;101441.50;;;11.87;100.00
43436;BME280;36399;51.444;-2.018;2023-02-20T14:01:22;101443.72;;;12.07;100.00
43436;BME280;36399;51.444;-2.018;2023-02-20T14:04:01;101436.63;;;12.03;100.00
43436;BME280;36399;51.444;-2.018;2023-02-20T14:06:27;101433.47;;;12.19;100.00
43436;BME280;36399;51.444;-2.018;2023-02-20T14:09:07;101431.88;;;12.27;100.00
43436;BME280;36399;51.444;-2.018;2023-02-20T14:11:36;101426.28;;;12.12;100.00
43436;BME280;36399;51.444;-2.018;2023-02-20T14:14:10;101440.22;;;12.06;100.00
43436;BME280;36399;51.444;-2.018;2023-02-20T14:16:45;101440.19;;;12.05;100.00
43436;BME280;36399;51.444;-2.018;2023-02-20T14:19:24;101444.75;;;12.13;100.00
43436;BME280;36399;51.444;-2.018;2023-02-20T14:21:51;101437.53;;;12.05;100.00
43436;BME280;36399;51.444;-2.018;2023-02-20T14:26:46;101440.69;;;11.54;100.00
43436;BME280;36399;51.444;-2.018;2023-02-20T14:31:50;101435.47;;;11.55;100.00
43436;BME280;36399;51.444;-2.018;2023-02-20T14:34:31;101438.84;;;11.50;100.00
43436;BME280;36399;51.444;-2.018;2023-02-20T14:37:29;101428.50;;;11.57;100.00
43436;BME280;36399;51.444;-2.018;2023-02-20T14:40:13;101421.50;;;11.58;100.00
43436;BME280;36399;51.444;-2.018;2023-02-20T14:42:44;101421.44;;;11.55;100.00
43436;BME280;36399;51.444;-2.018;2023-02-20T14:45:20;101418.63;;;11.47;100.00
43436;BME280;36399;51.444;-2.018;2023-02-20T14:47:51;101420.56;;;11.56;100.00
43436;BME280;36399;51.444;-2.018;2023-02-20T14:50:21;101423.00;;;11.47;100.00
43436;BME280;36399;51.444;-2.018;2023-02-20T14:53:20;101423.28;;;11.59;100.00
43436;BME280;36399;51.444;-2.018;2023-02-20T14:55:48;101420.91;;;11.69;100.00